Terminal Aerodrome Forecast
Issued by NWS

Home | Current Version | Previous Version | Graphics & Text | Print | Product List | Glossary On
Versions: 1 2 3 4 5 6 7 8 9 10 11 12 13
000
FTUS42 KMHX 261720
TAFISO
TAF
KISO 261720Z 2618/2718 07005KT P6SM VCTS SCT025CB BKN040
     FM270500 00000KT 3SM BR SCT005
     FM271200 05008KT P6SM BKN100
      AMD LTD TO CLD VIS AND WIND=

USA.gov is the U.S. government's official web portal to all federal, state and local government web resources and services.